sensor_id;sensor_type;location;lat;lon;timestamp;pressure;altitude;pressure_sealevel;temperature;humidity
58769;BME280;44536;47.474;19.056;2023-02-12T00:02:02;101749.94;;;3.81;88.92
58769;BME280;44536;47.474;19.056;2023-02-12T00:05:05;101753.56;;;3.77;88.97
58769;BME280;44536;47.474;19.056;2023-02-12T00:08:08;101750.91;;;3.78;89.17
58769;BME280;44536;47.474;19.056;2023-02-12T00:11:18;101748.31;;;3.77;89.31
58769;BME280;44536;47.474;19.056;2023-02-12T00:14:21;101744.81;;;3.76;89.20
58769;BME280;44536;47.474;19.056;2023-02-12T00:17:23;101737.72;;;3.80;88.92
58769;BME280;44536;47.474;19.056;2023-02-12T00:20:26;101744.88;;;3.75;89.15
58769;BME280;44536;47.474;19.056;2023-02-12T00:23:28;101754.66;;;3.68;89.75
58769;BME280;44536;47.474;19.056;2023-02-12T00:26:31;101735.37;;;3.69;89.97
58769;BME280;44536;47.474;19.056;2023-02-12T00:29:33;101749.38;;;3.70;90.15
58769;BME280;44536;47.474;19.056;2023-02-12T00:32:35;101743.34;;;3.66;90.58
58769;BME280;44536;47.474;19.056;2023-02-12T00:35:38;101742.25;;;3.75;90.67
58769;BME280;44536;47.474;19.056;2023-02-12T00:38:41;101732.50;;;3.80;90.49
58769;BME280;44536;47.474;19.056;2023-02-12T00:41:44;101732.66;;;3.74;90.79
58769;BME280;44536;47.474;19.056;2023-02-12T00:44:46;101737.97;;;3.71;91.26
58769;BME280;44536;47.474;19.056;2023-02-12T00:47:49;101743.19;;;3.72;91.64
58769;BME280;44536;47.474;19.056;2023-02-12T00:50:51;101729.25;;;3.70;91.73
58769;BME280;44536;47.474;19.056;2023-02-12T00:53:53;101729.53;;;3.59;92.23
58769;BME280;44536;47.474;19.056;2023-02-12T00:56:56;101726.16;;;3.54;92.98
58769;BME280;44536;47.474;19.056;2023-02-12T01:00:02;101719.69;;;3.67;92.60
58769;BME280;44536;47.474;19.056;2023-02-12T01:03:05;101725.56;;;3.77;92.49
58769;BME280;44536;47.474;19.056;2023-02-12T01:06:08;101725.53;;;3.79;92.39
58769;BME280;44536;47.474;19.056;2023-02-12T01:09:10;101730.81;;;3.77;92.50
58769;BME280;44536;47.474;19.056;2023-02-12T01:12:13;101735.34;;;3.71;92.92
58769;BME280;44536;47.474;19.056;2023-02-12T01:15:16;101747.44;;;3.76;92.86
58769;BME280;44536;47.474;19.056;2023-02-12T01:18:19;101738.44;;;3.86;92.18
58769;BME280;44536;47.474;19.056;2023-02-12T01:21:26;101733.03;;;3.92;91.78
58769;BME280;44536;47.474;19.056;2023-02-12T01:24:30;101741.84;;;3.90;91.94
58769;BME280;44536;47.474;19.056;2023-02-12T01:27:32;101735.03;;;3.83;92.34
58769;BME280;44536;47.474;19.056;2023-02-12T01:30:35;101711.81;;;3.67;93.05
58769;BME280;44536;47.474;19.056;2023-02-12T01:33:38;101699.88;;;3.57;93.89
58769;BME280;44536;47.474;19.056;2023-02-12T01:36:40;101711.97;;;3.63;93.81
58769;BME280;44536;47.474;19.056;2023-02-12T01:39:43;101713.34;;;3.76;92.94
58769;BME280;44536;47.474;19.056;2023-02-12T01:42:45;101720.31;;;3.77;92.82
58769;BME280;44536;47.474;19.056;2023-02-12T01:45:51;101706.50;;;3.71;93.05
58769;BME280;44536;47.474;19.056;2023-02-12T01:48:55;101719.59;;;3.71;93.22
58769;BME280;44536;47.474;19.056;2023-02-12T01:52:13;101736.06;;;3.77;93.01
58769;BME280;44536;47.474;19.056;2023-02-12T01:55:17;101724.56;;;3.81;92.64
58769;BME280;44536;47.474;19.056;2023-02-12T01:58:22;101740.59;;;3.71;93.20
58769;BME280;44536;47.474;19.056;2023-02-12T02:01:28;101741.00;;;3.55;94.29
58769;BME280;44536;47.474;19.056;2023-02-12T02:04:39;101740.25;;;3.50;94.68
58769;BME280;44536;47.474;19.056;2023-02-12T02:07:45;101743.44;;;3.63;94.42
58769;BME280;44536;47.474;19.056;2023-02-12T02:10:48;101746.38;;;3.51;94.81
58769;BME280;44536;47.474;19.056;2023-02-12T02:13:51;101744.75;;;3.45;95.12
58769;BME280;44536;47.474;19.056;2023-02-12T02:20:47;101747.47;;;3.41;95.89
58769;BME280;44536;47.474;19.056;2023-02-12T02:27:23;101765.72;;;3.45;95.60
58769;BME280;44536;47.474;19.056;2023-02-12T02:30:50;101780.53;;;3.48;95.37
58769;BME280;44536;47.474;19.056;2023-02-12T02:40:17;101782.72;;;3.29;96.93
58769;BME280;44536;47.474;19.056;2023-02-12T02:43:27;101776.81;;;3.19;97.10
58769;BME280;44536;47.474;19.056;2023-02-12T02:46:42;101781.56;;;3.04;98.91
58769;BME280;44536;47.474;19.056;2023-02-12T02:49:56;101771.81;;;3.10;98.96
58769;BME280;44536;47.474;19.056;2023-02-12T02:53:09;101781.97;;;3.24;98.52
58769;BME280;44536;47.474;19.056;2023-02-12T02:56:16;101781.97;;;3.24;98.18
58769;BME280;44536;47.474;19.056;2023-02-12T02:59:25;101788.03;;;3.26;98.45
58769;BME280;44536;47.474;19.056;2023-02-12T03:02:32;101787.09;;;3.28;97.91
58769;BME280;44536;47.474;19.056;2023-02-12T03:05:41;101802.16;;;3.19;98.49
58769;BME280;44536;47.474;19.056;2023-02-12T03:08:57;101790.59;;;3.29;98.15
58769;BME280;44536;47.474;19.056;2023-02-12T03:12:18;101801.44;;;3.12;98.99
58769;BME280;44536;47.474;19.056;2023-02-12T03:15:43;101801.31;;;3.18;99.10
58769;BME280;44536;47.474;19.056;2023-02-12T03:19:11;101805.63;;;3.21;99.24
58769;BME280;44536;47.474;19.056;2023-02-12T03:22:19;101803.00;;;3.21;99.21
58769;BME280;44536;47.474;19.056;2023-02-12T03:25:40;101811.66;;;3.24;99.16
58769;BME280;44536;47.474;19.056;2023-02-12T03:28:48;101805.41;;;3.30;98.76
58769;BME280;44536;47.474;19.056;2023-02-12T03:32:02;101802.69;;;3.35;98.74
58769;BME280;44536;47.474;19.056;2023-02-12T03:38:36;101808.69;;;3.40;98.45
58769;BME280;44536;47.474;19.056;2023-02-12T03:42:00;101813.94;;;3.40;98.26
58769;BME280;44536;47.474;19.056;2023-02-12T03:45:27;101822.53;;;3.46;97.98
58769;BME280;44536;47.474;19.056;2023-02-12T03:48:32;101830.22;;;3.54;97.40
58769;BME280;44536;47.474;19.056;2023-02-12T03:51:43;101843.34;;;3.52;97.45
58769;BME280;44536;47.474;19.056;2023-02-12T03:54:46;101827.63;;;3.52;97.29
58769;BME280;44536;47.474;19.056;2023-02-12T03:57:54;101842.44;;;3.55;97.36
58769;BME280;44536;47.474;19.056;2023-02-12T04:01:01;101840.00;;;3.46;97.72
58769;BME280;44536;47.474;19.056;2023-02-12T04:04:06;101847.97;;;3.41;98.13
58769;BME280;44536;47.474;19.056;2023-02-12T04:07:09;101849.81;;;3.38;98.48
58769;BME280;44536;47.474;19.056;2023-02-12T04:10:12;101866.38;;;3.40;98.42
58769;BME280;44536;47.474;19.056;2023-02-12T04:13:23;101867.41;;;3.32;98.80
58769;BME280;44536;47.474;19.056;2023-02-12T04:19:46;101876.84;;;3.40;98.53
58769;BME280;44536;47.474;19.056;2023-02-12T04:26:13;101883.91;;;3.38;98.58
58769;BME280;44536;47.474;19.056;2023-02-12T04:29:57;101891.63;;;3.44;98.03
58769;BME280;44536;47.474;19.056;2023-02-12T04:33:05;101893.56;;;3.36;98.29
58769;BME280;44536;47.474;19.056;2023-02-12T04:36:22;101898.66;;;3.42;97.99
58769;BME280;44536;47.474;19.056;2023-02-12T04:39:28;101898.66;;;3.42;97.65
58769;BME280;44536;47.474;19.056;2023-02-12T04:42:40;101893.38;;;3.43;97.59
58769;BME280;44536;47.474;19.056;2023-02-12T04:45:42;101898.53;;;3.48;96.91
58769;BME280;44536;47.474;19.056;2023-02-12T04:48:52;101909.00;;;3.49;96.75
58769;BME280;44536;47.474;19.056;2023-02-12T04:51:54;101911.78;;;3.42;97.24
58769;BME280;44536;47.474;19.056;2023-02-12T04:54:57;101919.62;;;3.42;97.40
58769;BME280;44536;47.474;19.056;2023-02-12T04:57:59;101926.09;;;3.25;97.54
58769;BME280;44536;47.474;19.056;2023-02-12T05:01:02;101932.47;;;3.12;98.83
58769;BME280;44536;47.474;19.056;2023-02-12T05:04:05;101929.72;;;3.20;99.07
58769;BME280;44536;47.474;19.056;2023-02-12T05:07:10;101942.75;;;3.23;98.95
58769;BME280;44536;47.474;19.056;2023-02-12T05:10:12;101940.88;;;3.29;98.73
58769;BME280;44536;47.474;19.056;2023-02-12T05:13:15;101946.00;;;3.36;98.31
58769;BME280;44536;47.474;19.056;2023-02-12T05:16:18;101950.56;;;3.26;98.76
58769;BME280;44536;47.474;19.056;2023-02-12T05:19:21;101963.53;;;3.32;98.87
58769;BME280;44536;47.474;19.056;2023-02-12T05:22:23;101963.53;;;3.32;98.67
58769;BME280;44536;47.474;19.056;2023-02-12T05:25:26;101967.94;;;3.30;99.09
58769;BME280;44536;47.474;19.056;2023-02-12T05:28:29;101980.41;;;3.19;99.85
58769;BME280;44536;47.474;19.056;2023-02-12T05:31:32;101992.72;;;3.14;99.83
58769;BME280;44536;47.474;19.056;2023-02-12T05:34:35;101997.72;;;2.81;100.00
58769;BME280;44536;47.474;19.056;2023-02-12T05:37:37;101988.72;;;2.48;100.00
58769;BME280;44536;47.474;19.056;2023-02-12T05:40:40;101988.22;;;2.23;100.00
58769;BME280;44536;47.474;19.056;2023-02-12T05:43:44;101996.19;;;2.17;100.00
58769;BME280;44536;47.474;19.056;2023-02-12T05:46:50;102004.53;;;2.41;100.00
58769;BME280;44536;47.474;19.056;2023-02-12T05:49:53;101996.81;;;2.33;100.00
58769;BME280;44536;47.474;19.056;2023-02-12T05:52:55;102005.53;;;2.33;100.00
58769;BME280;44536;47.474;19.056;2023-02-12T05:56:07;102016.56;;;2.52;100.00
58769;BME280;44536;47.474;19.056;2023-02-12T05:59:16;102012.13;;;2.57;100.00
58769;BME280;44536;47.474;19.056;2023-02-12T06:02:19;102014.38;;;2.77;100.00
58769;BME280;44536;47.474;19.056;2023-02-12T06:05:21;102028.41;;;2.73;100.00
58769;BME280;44536;47.474;19.056;2023-02-12T06:08:23;102038.78;;;2.81;100.00
58769;BME280;44536;47.474;19.056;2023-02-12T06:11:26;102042.69;;;3.08;100.00
58769;BME280;44536;47.474;19.056;2023-02-12T06:14:29;102046.87;;;3.15;100.00
58769;BME280;44536;47.474;19.056;2023-02-12T06:17:34;102056.25;;;3.28;100.00
58769;BME280;44536;47.474;19.056;2023-02-12T06:20:38;102053.47;;;3.37;100.00
58769;BME280;44536;47.474;19.056;2023-02-12T06:23:41;102048.09;;;3.43;100.00
58769;BME280;44536;47.474;19.056;2023-02-12T06:26:44;102059.59;;;3.36;100.00
58769;BME280;44536;47.474;19.056;2023-02-12T06:29:47;102056.16;;;3.32;100.00
58769;BME280;44536;47.474;19.056;2023-02-12T06:32:49;102061.28;;;3.39;100.00
58769;BME280;44536;47.474;19.056;2023-02-12T06:35:52;102064.75;;;3.41;100.00
58769;BME280;44536;47.474;19.056;2023-02-12T06:38:55;102075.09;;;3.48;99.86
58769;BME280;44536;47.474;19.056;2023-02-12T06:41:57;102063.69;;;3.51;99.70
58769;BME280;44536;47.474;19.056;2023-02-12T06:45:00;102075.38;;;3.76;99.84
58769;BME280;44536;47.474;19.056;2023-02-12T06:48:02;102089.22;;;4.63;95.46
58769;BME280;44536;47.474;19.056;2023-02-12T06:51:10;102089.62;;;5.16;90.45
58769;BME280;44536;47.474;19.056;2023-02-12T06:54:15;102093.50;;;5.01;89.52
58769;BME280;44536;47.474;19.056;2023-02-12T06:57:17;102103.91;;;4.70;90.67
58769;BME280;44536;47.474;19.056;2023-02-12T07:00:20;102104.37;;;4.50;91.94
58769;BME280;44536;47.474;19.056;2023-02-12T07:03:22;102110.00;;;4.35;92.74
58769;BME280;44536;47.474;19.056;2023-02-12T07:06:26;102111.97;;;4.24;93.64
58769;BME280;44536;47.474;19.056;2023-02-12T07:09:29;102111.34;;;4.14;94.00
58769;BME280;44536;47.474;19.056;2023-02-12T07:12:32;102114.06;;;4.10;94.68
58769;BME280;44536;47.474;19.056;2023-02-12T07:15:38;102125.37;;;4.13;94.54
58769;BME280;44536;47.474;19.056;2023-02-12T07:18:42;102127.81;;;4.21;94.42
58769;BME280;44536;47.474;19.056;2023-02-12T07:21:44;102130.47;;;4.19;94.19
58769;BME280;44536;47.474;19.056;2023-02-12T07:24:47;102139.09;;;4.24;93.97
58769;BME280;44536;47.474;19.056;2023-02-12T07:27:49;102148.09;;;4.54;92.80
58769;BME280;44536;47.474;19.056;2023-02-12T07:30:52;102160.03;;;4.68;91.81
58769;BME280;44536;47.474;19.056;2023-02-12T07:33:57;102163.50;;;4.68;91.86
58769;BME280;44536;47.474;19.056;2023-02-12T07:36:59;102155.72;;;4.65;91.71
58769;BME280;44536;47.474;19.056;2023-02-12T07:40:02;102159.94;;;4.71;91.62
58769;BME280;44536;47.474;19.056;2023-02-12T07:43:05;102157.06;;;4.81;90.82
58769;BME280;44536;47.474;19.056;2023-02-12T07:46:15;102167.22;;;4.96;90.07
58769;BME280;44536;47.474;19.056;2023-02-12T07:49:20;102172.28;;;5.06;89.25
58769;BME280;44536;47.474;19.056;2023-02-12T07:52:23;102175.87;;;5.02;89.65
58769;BME280;44536;47.474;19.056;2023-02-12T07:55:25;102179.19;;;5.10;89.14
58769;BME280;44536;47.474;19.056;2023-02-12T07:58:27;102180.84;;;5.14;89.00
58769;BME280;44536;47.474;19.056;2023-02-12T08:01:32;102174.81;;;5.09;89.11
58769;BME280;44536;47.474;19.056;2023-02-12T08:04:35;102179.75;;;5.21;88.53
58769;BME280;44536;47.474;19.056;2023-02-12T08:07:37;102184.81;;;5.28;88.23
58769;BME280;44536;47.474;19.056;2023-02-12T08:10:40;102185.03;;;5.21;88.34
58769;BME280;44536;47.474;19.056;2023-02-12T08:13:42;102184.59;;;5.38;87.79
58769;BME280;44536;47.474;19.056;2023-02-12T08:16:47;102185.87;;;5.57;86.55
58769;BME280;44536;47.474;19.056;2023-02-12T08:19:50;102189.75;;;5.75;84.87
58769;BME280;44536;47.474;19.056;2023-02-12T08:22:52;102186.13;;;5.79;84.79
58769;BME280;44536;47.474;19.056;2023-02-12T08:26:13;102193.78;;;5.88;84.13
58769;BME280;44536;47.474;19.056;2023-02-12T08:29:19;102196.47;;;5.86;83.82
58769;BME280;44536;47.474;19.056;2023-02-12T08:32:22;102216.41;;;5.62;85.41
58769;BME280;44536;47.474;19.056;2023-02-12T08:35:24;102207.00;;;5.54;85.01
58769;BME280;44536;47.474;19.056;2023-02-12T08:38:27;102212.38;;;5.49;85.50
58769;BME280;44536;47.474;19.056;2023-02-12T08:41:30;102208.88;;;5.81;83.93
58769;BME280;44536;47.474;19.056;2023-02-12T08:44:32;102214.19;;;5.80;83.84
58769;BME280;44536;47.474;19.056;2023-02-12T08:47:35;102212.63;;;5.73;84.02
58769;BME280;44536;47.474;19.056;2023-02-12T08:50:37;102209.19;;;5.71;84.38
58769;BME280;44536;47.474;19.056;2023-02-12T08:53:41;102212.28;;;5.85;84.13
58769;BME280;44536;47.474;19.056;2023-02-12T08:56:44;102223.69;;;5.85;84.02
58769;BME280;44536;47.474;19.056;2023-02-12T08:59:47;102230.44;;;5.97;82.90
58769;BME280;44536;47.474;19.056;2023-02-12T09:02:50;102233.59;;;6.10;82.46
58769;BME280;44536;47.474;19.056;2023-02-12T09:05:53;102236.09;;;6.14;81.96
58769;BME280;44536;47.474;19.056;2023-02-12T09:08:55;102243.22;;;6.11;82.46
58769;BME280;44536;47.474;19.056;2023-02-12T09:11:58;102246.87;;;6.36;81.89
58769;BME280;44536;47.474;19.056;2023-02-12T09:15:00;102249.03;;;6.53;81.08
58769;BME280;44536;47.474;19.056;2023-02-12T09:18:03;102249.72;;;6.59;79.71
58769;BME280;44536;47.474;19.056;2023-02-12T09:21:08;102255.16;;;6.53;79.53
58769;BME280;44536;47.474;19.056;2023-02-12T09:24:11;102261.03;;;6.63;80.04
58769;BME280;44536;47.474;19.056;2023-02-12T09:27:13;102263.19;;;6.78;79.01
58769;BME280;44536;47.474;19.056;2023-02-12T09:30:16;102262.78;;;6.92;78.24
58769;BME280;44536;47.474;19.056;2023-02-12T09:33:19;102263.81;;;7.16;77.28
58769;BME280;44536;47.474;19.056;2023-02-12T09:36:21;102268.94;;;7.20;76.99
58769;BME280;44536;47.474;19.056;2023-02-12T09:39:23;102266.41;;;7.44;76.14
58769;BME280;44536;47.474;19.056;2023-02-12T09:45:59;102266.44;;;7.70;73.64
58769;BME280;44536;47.474;19.056;2023-02-12T09:49:48;102268.44;;;8.13;72.32
58769;BME280;44536;47.474;19.056;2023-02-12T09:52:40;102270.97;;;9.10;67.95
58769;BME280;44536;47.474;19.056;2023-02-12T09:55:43;102271.66;;;9.79;64.75
58769;BME280;44536;47.474;19.056;2023-02-12T09:58:56;102276.84;;;9.82;64.63
58769;BME280;44536;47.474;19.056;2023-02-12T10:02:00;102274.03;;;11.02;60.15
58769;BME280;44536;47.474;19.056;2023-02-12T10:05:04;102266.00;;;11.93;57.25
58769;BME280;44536;47.474;19.056;2023-02-12T10:12:10;102277.91;;;14.22;48.66
58769;BME280;44536;47.474;19.056;2023-02-12T10:18:56;102276.88;;;14.81;43.65
58769;BME280;44536;47.474;19.056;2023-02-12T10:22:07;102281.50;;;15.87;41.61
58769;BME280;44536;47.474;19.056;2023-02-12T10:28:42;102293.34;;;16.48;39.45
58769;BME280;44536;47.474;19.056;2023-02-12T10:35:18;102290.09;;;16.81;37.47
58769;BME280;44536;47.474;19.056;2023-02-12T10:38:26;102288.41;;;16.29;38.66
58769;BME280;44536;47.474;19.056;2023-02-12T10:41:31;102295.13;;;16.85;37.37
58769;BME280;44536;47.474;19.056;2023-02-12T10:44:38;102307.72;;;17.09;36.93
58769;BME280;44536;47.474;19.056;2023-02-12T10:47:40;102302.84;;;16.90;36.71
58769;BME280;44536;47.474;19.056;2023-02-12T10:54:36;102303.75;;;17.62;35.98
58769;BME280;44536;47.474;19.056;2023-02-12T10:57:39;102302.94;;;17.97;34.55
58769;BME280;44536;47.474;19.056;2023-02-12T11:00:41;102293.06;;;17.26;36.44
58769;BME280;44536;47.474;19.056;2023-02-12T11:03:44;102297.81;;;16.85;37.36
58769;BME280;44536;47.474;19.056;2023-02-12T11:07:06;102290.31;;;16.65;37.34
58769;BME280;44536;47.474;19.056;2023-02-12T11:10:20;102290.06;;;16.94;37.01
58769;BME280;44536;47.474;19.056;2023-02-12T11:13:27;102292.03;;;16.79;37.09
58769;BME280;44536;47.474;19.056;2023-02-12T11:16:33;102296.72;;;17.96;35.75
58769;BME280;44536;47.474;19.056;2023-02-12T11:19:35;102295.75;;;19.31;32.62
58769;BME280;44536;47.474;19.056;2023-02-12T11:22:51;102297.97;;;18.03;35.28
58769;BME280;44536;47.474;19.056;2023-02-12T11:26:01;102292.28;;;17.60;35.47
58769;BME280;44536;47.474;19.056;2023-02-12T11:29:19;102282.53;;;17.11;36.38
58769;BME280;44536;47.474;19.056;2023-02-12T11:32:22;102296.19;;;17.19;36.61
58769;BME280;44536;47.474;19.056;2023-02-12T11:35:25;102293.78;;;17.40;35.27
58769;BME280;44536;47.474;19.056;2023-02-12T11:38:37;102291.72;;;16.07;37.30
58769;BME280;44536;47.474;19.056;2023-02-12T11:41:40;102295.28;;;14.86;40.04
58769;BME280;44536;47.474;19.056;2023-02-12T11:44:52;102294.19;;;14.47;40.86
58769;BME280;44536;47.474;19.056;2023-02-12T11:47:55;102302.94;;;14.05;41.29
58769;BME280;44536;47.474;19.056;2023-02-12T11:51:02;102297.97;;;13.69;42.77
58769;BME280;44536;47.474;19.056;2023-02-12T11:54:05;102298.09;;;14.42;40.22
58769;BME280;44536;47.474;19.056;2023-02-12T11:57:35;102299.31;;;13.92;41.28
58769;BME280;44536;47.474;19.056;2023-02-12T12:01:00;102298.09;;;13.98;41.08
58769;BME280;44536;47.474;19.056;2023-02-12T12:04:05;102295.94;;;13.11;43.37
58769;BME280;44536;47.474;19.056;2023-02-12T12:07:19;102293.12;;;12.50;45.08
58769;BME280;44536;47.474;19.056;2023-02-12T12:10:34;102284.56;;;12.27;45.98
58769;BME280;44536;47.474;19.056;2023-02-12T12:13:46;102282.41;;;12.01;46.52
58769;BME280;44536;47.474;19.056;2023-02-12T12:20:21;102280.53;;;11.33;48.88
58769;BME280;44536;47.474;19.056;2023-02-12T12:23:31;102281.56;;;11.11;49.50
58769;BME280;44536;47.474;19.056;2023-02-12T12:26:38;102275.31;;;10.93;49.95
58769;BME280;44536;47.474;19.056;2023-02-12T12:29:57;102280.72;;;10.73;50.12
58769;BME280;44536;47.474;19.056;2023-02-12T12:33:05;102275.25;;;10.57;50.66
58769;BME280;44536;47.474;19.056;2023-02-12T12:46:03;102279.50;;;10.22;52.43
58769;BME280;44536;47.474;19.056;2023-02-12T13:16:10;102283.31;;;9.95;55.14
58769;BME280;44536;47.474;19.056;2023-02-12T13:19:27;102284.44;;;9.47;57.06
58769;BME280;44536;47.474;19.056;2023-02-12T13:22:43;102281.31;;;9.38;57.57
58769;BME280;44536;47.474;19.056;2023-02-12T13:26:42;102285.16;;;9.31;58.03
58769;BME280;44536;47.474;19.056;2023-02-12T13:32:28;102289.97;;;9.63;57.45
58769;BME280;44536;47.474;19.056;2023-02-12T13:35:33;102293.63;;;9.39;58.36
58769;BME280;44536;47.474;19.056;2023-02-12T13:38:41;102298.00;;;9.18;58.56
58769;BME280;44536;47.474;19.056;2023-02-12T13:41:56;102293.41;;;9.00;59.43
58769;BME280;44536;47.474;19.056;2023-02-12T13:51:43;102298.25;;;8.88;59.34
58769;BME280;44536;47.474;19.056;2023-02-12T14:01:43;102306.09;;;8.68;59.62
58769;BME280;44536;47.474;19.056;2023-02-12T14:07:57;102313.72;;;8.52;60.26
58769;BME280;44536;47.474;19.056;2023-02-12T14:11:07;102308.81;;;8.42;60.91
58769;BME280;44536;47.474;19.056;2023-02-12T14:14:09;102306.50;;;8.33;60.91
58769;BME280;44536;47.474;19.056;2023-02-12T14:20:37;102311.91;;;8.54;60.58
58769;BME280;44536;47.474;19.056;2023-02-12T14:23:44;102306.78;;;8.73;59.80
58769;BME280;44536;47.474;19.056;2023-02-12T14:26:47;102310.34;;;8.49;60.27
58769;BME280;44536;47.474;19.056;2023-02-12T14:33:25;102318.78;;;8.09;62.22
58769;BME280;44536;47.474;19.056;2023-02-12T14:39:33;102317.44;;;7.97;62.45
58769;BME280;44536;47.474;19.056;2023-02-12T14:45:38;102332.88;;;7.83;62.71
58769;BME280;44536;47.474;19.056;2023-02-12T14:48:59;102329.25;;;7.85;62.84
58769;BME280;44536;47.474;19.056;2023-02-12T14:55:33;102332.50;;;7.41;64.38
58769;BME280;44536;47.474;19.056;2023-02-12T14:58:36;102339.63;;;7.65;63.64
58769;BME280;44536;47.474;19.056;2023-02-12T15:01:40;102336.13;;;7.64;63.61
58769;BME280;44536;47.474;19.056;2023-02-12T15:04:44;102331.63;;;7.40;66.22
58769;BME280;44536;47.474;19.056;2023-02-12T15:08:06;102335.19;;;7.39;64.87
58769;BME280;44536;47.474;19.056;2023-02-12T15:14:26;102319.50;;;7.35;65.31
58769;BME280;44536;47.474;19.056;2023-02-12T15:17:33;102336.19;;;7.35;65.12
58769;BME280;44536;47.474;19.056;2023-02-12T15:20:47;102337.78;;;7.41;66.11
58769;BME280;44536;47.474;19.056;2023-02-12T15:24:10;102339.34;;;7.46;64.44
58769;BME280;44536;47.474;19.056;2023-02-12T15:27:14;102332.78;;;7.31;65.06
58769;BME280;44536;47.474;19.056;2023-02-12T15:30:18;102338.47;;;7.19;66.96
58769;BME280;44536;47.474;19.056;2023-02-12T15:33:31;102344.16;;;7.06;66.66
58769;BME280;44536;47.474;19.056;2023-02-12T15:36:34;102342.72;;;6.94;67.98
58769;BME280;44536;47.474;19.056;2023-02-12T15:39:42;102349.50;;;6.73;67.32
58769;BME280;44536;47.474;19.056;2023-02-12T15:42:52;102345.78;;;6.49;69.10
58769;BME280;44536;47.474;19.056;2023-02-12T15:45:56;102346.50;;;6.23;70.19
58769;BME280;44536;47.474;19.056;2023-02-12T15:48:59;102344.41;;;6.02;70.32
58769;BME280;44536;47.474;19.056;2023-02-12T15:52:19;102356.06;;;5.92;71.58
58769;BME280;44536;47.474;19.056;2023-02-12T15:55:25;102356.69;;;5.66;72.96
58769;BME280;44536;47.474;19.056;2023-02-12T15:58:32;102368.25;;;5.59;73.36
58769;BME280;44536;47.474;19.056;2023-02-12T16:01:37;102366.03;;;5.41;74.02
58769;BME280;44536;47.474;19.056;2023-02-12T16:04:42;102367.25;;;5.26;75.12
58769;BME280;44536;47.474;19.056;2023-02-12T16:07:45;102377.81;;;5.24;75.21
58769;BME280;44536;47.474;19.056;2023-02-12T16:10:51;102380.69;;;5.14;76.03
58769;BME280;44536;47.474;19.056;2023-02-12T16:13:59;102380.03;;;5.03;76.28
58769;BME280;44536;47.474;19.056;2023-02-12T16:17:02;102388.25;;;4.87;76.75
58769;BME280;44536;47.474;19.056;2023-02-12T16:20:21;102388.66;;;4.68;77.47
58769;BME280;44536;47.474;19.056;2023-02-12T16:23:26;102397.81;;;4.45;79.03
58769;BME280;44536;47.474;19.056;2023-02-12T16:26:28;102401.62;;;4.27;79.55
58769;BME280;44536;47.474;19.056;2023-02-12T16:29:31;102408.00;;;4.16;80.87
58769;BME280;44536;47.474;19.056;2023-02-12T16:32:39;102409.78;;;4.14;81.34
58769;BME280;44536;47.474;19.056;2023-02-12T16:35:41;102411.62;;;4.07;83.90
58769;BME280;44536;47.474;19.056;2023-02-12T16:38:48;102409.19;;;3.95;82.77
58769;BME280;44536;47.474;19.056;2023-02-12T16:41:54;102411.16;;;3.81;83.60
58769;BME280;44536;47.474;19.056;2023-02-12T16:44:57;102413.09;;;3.68;83.46
58769;BME280;44536;47.474;19.056;2023-02-12T16:51:22;102425.63;;;3.49;85.68
58769;BME280;44536;47.474;19.056;2023-02-12T16:57:33;102438.84;;;3.42;86.52
58769;BME280;44536;47.474;19.056;2023-02-12T17:00:35;102447.66;;;3.36;87.83
58769;BME280;44536;47.474;19.056;2023-02-12T17:03:38;102446.81;;;3.34;88.11
58769;BME280;44536;47.474;19.056;2023-02-12T17:06:41;102447.53;;;3.45;87.43
58769;BME280;44536;47.474;19.056;2023-02-12T17:09:44;102446.66;;;3.46;87.98
58769;BME280;44536;47.474;19.056;2023-02-12T17:12:50;102458.75;;;3.56;87.12
58769;BME280;44536;47.474;19.056;2023-02-12T17:15:58;102455.50;;;3.39;87.92
58769;BME280;44536;47.474;19.056;2023-02-12T17:19:02;102457.34;;;3.29;88.40
58769;BME280;44536;47.474;19.056;2023-02-12T17:22:06;102461.69;;;3.32;88.81
58769;BME280;44536;47.474;19.056;2023-02-12T17:25:11;102457.34;;;3.29;89.40
58769;BME280;44536;47.474;19.056;2023-02-12T17:28:14;102458.25;;;3.28;89.59
58769;BME280;44536;47.474;19.056;2023-02-12T17:31:17;102453.91;;;3.26;89.98
58769;BME280;44536;47.474;19.056;2023-02-12T17:34:22;102459.28;;;3.14;90.01
58769;BME280;44536;47.474;19.056;2023-02-12T17:37:25;102456.75;;;3.09;90.24
58769;BME280;44536;47.474;19.056;2023-02-12T17:40:27;102460.28;;;3.07;91.42
58769;BME280;44536;47.474;19.056;2023-02-12T17:43:29;102462.78;;;3.13;91.24
58769;BME280;44536;47.474;19.056;2023-02-12T17:46:32;102465.38;;;3.16;91.23
58769;BME280;44536;47.474;19.056;2023-02-12T17:49:35;102463.78;;;3.06;91.44
58769;BME280;44536;47.474;19.056;2023-02-12T17:52:39;102475.31;;;2.88;91.57
58769;BME280;44536;47.474;19.056;2023-02-12T17:55:42;102474.59;;;2.74;93.12
58769;BME280;44536;47.474;19.056;2023-02-12T17:58:45;102485.22;;;2.60;93.42
58769;BME280;44536;47.474;19.056;2023-02-12T18:01:47;102484.37;;;2.56;93.59
58769;BME280;44536;47.474;19.056;2023-02-12T18:04:50;102481.88;;;2.44;94.95
58769;BME280;44536;47.474;19.056;2023-02-12T18:07:52;102481.06;;;2.36;96.20
58769;BME280;44536;47.474;19.056;2023-02-12T18:10:55;102488.06;;;2.34;96.44
58769;BME280;44536;47.474;19.056;2023-02-12T18:13:59;102483.78;;;2.22;96.87
58769;BME280;44536;47.474;19.056;2023-02-12T18:17:01;102484.69;;;2.18;97.97
58769;BME280;44536;47.474;19.056;2023-02-12T18:20:04;102492.59;;;2.11;98.34
58769;BME280;44536;47.474;19.056;2023-02-12T18:23:08;102484.75;;;2.09;98.46